Time;durP1;ratioP1;P1;durP2;ratioP2;P2;SDS_P1;SDS_P2;PMS_P1;PMS_P2;Temp;Humidity;BMP_temperature;BMP_pressure;BME280_temperature;BME280_humidity;BME280_pressure;Samples;Min_cycle;Max_cycle;Signal;HPM_P1;HPM_P2
2023/06/26 03:16:36;;;;;;;9.18;3.80;;;20.40;72.40;;;;;;6179684;22;94471;-65
2023/06/26 03:19:01;;;;;;;6.45;3.90;;;20.30;72.60;;;;;;6246504;22;92324;-65
2023/06/26 03:21:27;;;;;;;8.00;4.38;;;20.20;72.40;;;;;;6246521;22;92670;-64
2023/06/26 03:23:53;;;;;;;7.25;3.95;;;20.20;73.60;;;;;;6246287;22;92811;-64
2023/06/26 03:26:18;;;;;;;6.68;3.90;;;20.10;72.80;;;;;;6247244;22;92307;-65
2023/06/26 03:28:44;;;;;;;5.85;3.13;;;20.10;73.00;;;;;;6248150;22;91375;-63
2023/06/26 03:31:10;;;;;;;8.95;3.88;;;20.10;73.10;;;;;;6246110;22;93535;-64
2023/06/26 03:33:36;;;;;;;8.40;3.70;;;20.00;73.70;;;;;;6246722;22;92646;-63
2023/06/26 03:36:02;;;;;;;6.50;3.63;;;20.00;74.00;;;;;;6245787;22;93625;-63
2023/06/26 03:38:28;;;;;;;6.35;2.85;;;20.00;74.70;;;;;;6247603;22;92421;-64
2023/06/26 03:40:54;;;;;;;5.95;3.45;;;20.00;74.80;;;;;;6246632;22;92693;-64
2023/06/26 03:43:19;;;;;;;8.55;3.67;;;20.00;74.50;;;;;;6246816;22;92390;-65
2023/06/26 03:45:46;;;;;;;5.95;3.45;;;20.00;74.30;;;;;;6247422;22;92317;-66
2023/06/26 03:48:11;;;;;;;5.65;3.33;;;20.10;73.40;;;;;;6247507;22;92570;-63
2023/06/26 03:50:37;;;;;;;8.35;3.60;;;20.20;71.50;;;;;;6247113;22;92307;-63
2023/06/26 03:53:03;;;;;;;8.50;3.70;;;20.40;70.40;;;;;;6247033;22;92991;-64
2023/06/26 03:55:28;;;;;;;7.22;3.97;;;20.70;70.80;;;;;;6247085;22;92566;-64
2023/06/26 03:57:54;;;;;;;5.97;3.55;;;20.90;70.10;;;;;;6247548;22;92484;-64
2023/06/26 04:00:20;;;;;;;6.32;3.80;;;21.10;69.70;;;;;;6245652;22;93528;-64
2023/06/26 04:02:45;;;;;;;8.48;3.90;;;21.30;70.00;;;;;;6244895;22;93661;-64
2023/06/26 04:05:11;;;;;;;5.28;3.58;;;21.60;68.30;;;;;;6247271;22;92405;-64
2023/06/26 04:07:37;;;;;;;5.93;3.35;;;22.00;68.20;;;;;;6247417;22;92522;-63
2023/06/26 04:10:03;;;;;;;7.25;3.45;;;22.40;67.10;;;;;;6246196;22;93276;-64
2023/06/26 04:12:29;;;;;;;7.28;3.50;;;22.70;65.30;;;;;;6246790;22;92451;-63
2023/06/26 04:14:55;;;;;;;7.63;3.70;;;23.10;64.50;;;;;;6246928;22;92148;-63
2023/06/26 04:17:21;;;;;;;6.60;3.67;;;23.50;63.40;;;;;;6229845;22;91560;-65
2023/06/26 04:19:47;;;;;;;9.00;3.92;;;23.90;61.30;;;;;;6215811;22;93235;-64
2023/06/26 04:22:13;;;;;;;8.93;3.53;;;24.30;60.30;;;;;;6215489;22;92094;-64
2023/06/26 04:24:38;;;;;;;9.00;4.05;;;24.60;59.20;;;;;;6215193;22;93336;-67
2023/06/26 04:27:05;;;;;;;5.97;4.07;;;25.00;58.60;;;;;;6216161;22;92119;-66
2023/06/26 04:29:31;;;;;;;6.32;4.32;;;25.30;57.80;;;;;;6215850;22;93171;-67
2023/06/26 04:31:57;;;;;;;9.65;4.05;;;25.60;56.90;;;;;;6215222;22;93388;-69
2023/06/26 04:34:27;;;;;;;6.57;4.18;;;26.00;56.00;;;;;;6215605;22;92056;-73
2023/06/26 04:36:53;;;;;;;10.88;4.07;;;26.40;55.80;;;;;;6215552;22;92053;-71
2023/06/26 04:39:19;;;;;;;9.15;4.20;;;26.60;55.40;;;;;;6215434;22;92625;-71
2023/06/26 04:41:45;;;;;;;7.13;3.58;;;26.90;54.90;;;;;;6215912;22;92186;-70
2023/06/26 04:44:11;;;;;;;6.30;4.32;;;27.10;54.20;;;;;;6214686;22;92335;-70
2023/06/26 04:46:43;;;;;;;6.28;5.20;;;27.50;53.50;;;;;;6216097;22;92288;-69
2023/06/26 04:49:09;;;;;;;8.23;5.03;;;27.70;53.90;;;;;;6214342;22;94059;-69
2023/06/26 04:51:40;;;;;;;10.27;4.50;;;28.00;53.00;;;;;;6215119;22;93170;-69
2023/06/26 04:54:07;;;;;;;8.55;4.75;;;28.40;52.80;;;;;;6215793;22;92487;-70
2023/06/26 04:56:33;;;;;;;6.47;4.15;;;28.90;52.60;;;;;;6216097;22;92501;-69
2023/06/26 04:58:59;;;;;;;9.50;4.72;;;29.40;52.30;;;;;;6214739;22;92531;-70
2023/06/26 05:01:24;;;;;;;7.90;5.13;;;30.10;52.30;;;;;;6215245;22;92885;-69
2023/06/26 05:03:50;;;;;;;10.93;4.90;;;30.50;51.10;;;;;;6215902;22;92504;-69
2023/06/26 05:06:16;;;;;;;9.77;5.07;;;30.50;51.70;;;;;;6216219;22;91587;-70
2023/06/26 05:08:41;;;;;;;7.45;5.93;;;31.00;51.00;;;;;;6215154;22;92565;-69
2023/06/26 05:11:07;;;;;;;7.07;3.83;;;31.70;50.00;;;;;;6215395;22;92386;-69
2023/06/26 05:13:32;;;;;;;13.05;5.75;;;32.50;49.10;;;;;;6215200;22;93447;-70
2023/06/26 05:15:58;;;;;;;13.35;5.28;;;32.50;48.90;;;;;;6216304;22;92306;-69
2023/06/26 05:18:24;;;;;;;6.18;5.55;;;32.50;48.30;;;;;;6212206;22;93391;-67
2023/06/26 05:20:50;;;;;;;8.55;5.30;;;33.00;48.10;;;;;;6212236;22;92779;-69
2023/06/26 05:23:16;;;;;;;11.35;5.88;;;33.60;47.60;;;;;;6212799;22;92869;-69
2023/06/26 05:25:42;;;;;;;7.53;5.90;;;34.40;47.30;;;;;;6213123;22;92359;-69
2023/06/26 05:28:10;;;;;;;7.88;5.78;;;35.00;46.50;;;;;;6212710;22;92703;-71
2023/06/26 05:30:36;;;;;;;7.88;5.93;;;35.30;45.40;;;;;;6212686;22;91808;-69
2023/06/26 05:33:03;;;;;;;9.30;6.38;;;35.50;44.60;;;;;;6213421;22;92428;-69
2023/06/26 05:35:30;;;;;;;10.07;5.35;;;35.70;44.20;;;;;;6213126;22;92082;-69
2023/06/26 05:37:56;;;;;;;6.07;4.68;;;35.40;45.20;;;;;;6212260;22;94062;-69
2023/06/26 05:40:22;;;;;;;9.93;6.22;;;36.30;43.90;;;;;;6212246;22;94209;-69
2023/06/26 05:42:49;;;;;;;7.10;5.70;;;36.50;43.40;;;;;;6212381;22;92193;-69
2023/06/26 05:45:15;;;;;;;8.93;7.15;;;36.80;44.00;;;;;;6212881;22;92491;-68
2023/06/26 05:47:40;;;;;;;7.95;6.70;;;37.10;41.90;;;;;;6212905;22;92541;-69
2023/06/26 05:50:08;;;;;;;8.40;7.55;;;36.90;43.30;;;;;;6213095;22;92700;-69
2023/06/26 05:52:35;;;;;;;9.98;6.75;;;36.70;42.60;;;;;;6213690;22;92118;-68
2023/06/26 05:55:01;;;;;;;7.95;6.38;;;37.20;42.70;;;;;;6214294;22;91452;-69
2023/06/26 05:57:28;;;;;;;7.85;7.05;;;37.90;41.90;;;;;;6215032;22;92672;-69
2023/06/26 05:59:55;;;;;;;8.82;7.38;;;37.60;41.10;;;;;;6214798;22;92764;-68
2023/06/26 06:02:20;;;;;;;8.25;4.43;;;38.40;41.90;;;;;;6214845;22;92949;-69
2023/06/26 06:04:46;;;;;;;11.15;5.72;;;38.80;41.80;;;;;;6215198;22;92416;-69
2023/06/26 06:07:12;;;;;;;10.73;7.65;;;39.40;41.10;;;;;;6214989;22;92541;-69
2023/06/26 06:09:38;;;;;;;9.00;8.13;;;39.10;40.50;;;;;;6214703;22;93498;-69
2023/06/26 06:12:05;;;;;;;10.75;7.65;;;38.90;40.20;;;;;;6214985;22;92424;-69
2023/06/26 06:14:32;;;;;;;12.57;7.70;;;39.00;40.30;;;;;;6215154;22;92358;-68
2023/06/26 06:16:57;;;;;;;9.30;6.87;;;39.10;40.60;;;;;;6160937;22;1232119;-69
2023/06/26 06:19:23;;;;;;;8.07;5.47;;;39.40;38.10;;;;;;6215651;22;92559;-70
2023/06/26 06:21:49;;;;;;;9.48;7.22;;;40.80;37.60;;;;;;6189771;22;92040;-69
2023/06/26 06:24:14;;;;;;;10.02;6.82;;;40.70;36.00;;;;;;6216580;22;92479;-68
2023/06/26 06:26:40;;;;;;;8.32;6.65;;;40.50;37.30;;;;;;6215443;22;94032;-68
2023/06/26 06:29:06;;;;;;;9.40;6.40;;;41.00;37.60;;;;;;6215730;22;93750;-69
2023/06/26 06:31:32;;;;;;;9.80;7.72;;;41.20;35.60;;;;;;6216428;22;92473;-69
2023/06/26 06:33:57;;;;;;;8.35;6.75;;;41.30;35.90;;;;;;6216595;22;92480;-68
2023/06/26 06:36:23;;;;;;;8.75;7.95;;;41.70;35.70;;;;;;6215353;22;92607;-69
2023/06/26 06:38:49;;;;;;;7.50;6.72;;;42.10;36.00;;;;;;6215742;22;92598;-70
2023/06/26 06:41:15;;;;;;;10.95;8.23;;;42.70;34.80;;;;;;6216302;22;92384;-68
2023/06/26 06:43:41;;;;;;;8.80;7.55;;;43.00;35.50;;;;;;6217124;22;91991;-68
2023/06/26 06:46:06;;;;;;;9.35;7.85;;;42.60;35.70;;;;;;6215674;22;92581;-69
2023/06/26 06:48:32;;;;;;;9.82;8.80;;;43.10;35.40;;;;;;6216324;22;93521;-69
2023/06/26 06:50:58;;;;;;;9.25;8.35;;;43.90;36.00;;;;;;6215703;22;93292;-69
2023/06/26 06:53:23;;;;;;;10.77;7.70;;;44.50;33.70;;;;;;6216710;22;92361;-69
2023/06/26 06:55:49;;;;;;;9.32;5.88;;;44.50;32.80;;;;;;6215941;22;93489;-69
2023/06/26 06:58:22;;;;;;;10.00;8.95;;;44.20;35.20;;;;;;6215907;22;92236;-68
2023/06/26 07:00:48;;;;;;;10.25;9.18;;;44.40;35.50;;;;;;6215640;22;92067;-69
2023/06/26 07:03:14;;;;;;;10.27;9.38;;;45.10;35.20;;;;;;6216930;22;92427;-69
2023/06/26 07:05:42;;;;;;;6.20;5.47;;;45.70;35.50;;;;;;6215447;22;92534;-70
2023/06/26 07:08:08;;;;;;;8.32;7.53;;;45.70;35.10;;;;;;6215328;22;93168;-69
2023/06/26 07:10:34;;;;;;;10.00;9.02;;;45.80;35.50;;;;;;6215997;22;92586;-69
2023/06/26 07:12:59;;;;;;;9.82;8.68;;;46.10;35.20;;;;;;6216646;22;92234;-70
2023/06/26 07:15:25;;;;;;;14.13;10.20;;;45.60;35.00;;;;;;6214840;22;94610;-69
2023/06/26 07:17:51;;;;;;;9.85;8.77;;;45.40;35.90;;;;;;6214403;22;93172;-68
2023/06/26 07:20:16;;;;;;;10.85;9.73;;;46.00;35.30;;;;;;6216193;22;92280;-67
2023/06/26 07:22:44;;;;;;;10.40;9.40;;;46.50;35.30;;;;;;6216864;22;92391;-68
2023/06/26 07:25:10;;;;;;;10.77;9.77;;;46.80;34.10;;;;;;6215582;22;92574;-69
2023/06/26 07:27:40;;;;;;;10.82;9.82;;;47.30;33.70;;;;;;6215612;22;92606;-68
2023/06/26 07:30:08;;;;;;;11.98;10.85;;;47.30;35.00;;;;;;6215884;22;92326;-68
2023/06/26 07:32:34;;;;;;;12.45;11.35;;;47.60;34.60;;;;;;6215937;22;92291;-68
2023/06/26 07:35:00;;;;;;;12.10;10.90;;;47.80;34.50;;;;;;6214909;22;93060;-69
2023/06/26 07:37:26;;;;;;;12.13;11.07;;;47.20;33.60;;;;;;6214702;22;92828;-68
2023/06/26 07:39:51;;;;;;;11.77;10.75;;;46.90;34.90;;;;;;6214366;22;93348;-68
2023/06/26 07:42:17;;;;;;;14.05;9.95;;;46.90;35.60;;;;;;6215714;22;92013;-68
2023/06/26 07:44:43;;;;;;;12.93;11.85;;;47.50;34.80;;;;;;6215665;22;93055;-68
2023/06/26 07:47:09;;;;;;;12.32;11.13;;;47.60;34.80;;;;;;6214770;22;92527;-68
2023/06/26 07:49:35;;;;;;;12.00;11.00;;;47.70;34.80;;;;;;6215253;22;92022;-68
2023/06/26 07:52:02;;;;;;;12.73;11.68;;;47.40;33.40;;;;;;6215639;22;92137;-69
2023/06/26 07:54:27;;;;;;;12.48;11.30;;;47.10;33.10;;;;;;6214801;22;93011;-68
2023/06/26 07:57:00;;;;;;;11.60;8.38;;;46.60;33.20;;;;;;6215048;22;93238;-68
2023/06/26 07:59:27;;;;;;;11.90;8.95;;;46.00;32.00;;;;;;6215919;22;92222;-70
2023/06/26 08:01:54;;;;;;;10.45;9.45;;;44.60;32.10;;;;;;6216328;22;92329;-68
2023/06/26 08:04:22;;;;;;;7.50;5.72;;;45.00;33.10;;;;;;6187809;22;96356;-69
2023/06/26 08:06:54;;;;;;;12.00;10.60;;;45.10;33.30;;;;;;6215516;22;92600;-68
2023/06/26 08:09:22;;;;;;;10.55;9.23;;;45.90;31.20;;;;;;6215350;22;92811;-68
2023/06/26 08:11:47;;;;;;;;;;;45.70;31.60;;;;;;6216753;22;92428;-68
2023/06/26 08:14:13;;;;;;;12.93;9.48;;;46.20;31.50;;;;;;6217643;22;92961;-69
2023/06/26 08:16:46;;;;;;;11.35;9.75;;;47.10;31.60;;;;;;6214957;22;92518;-70
2023/06/26 08:19:13;;;;;;;12.05;8.77;;;47.50;31.10;;;;;;6215287;22;92397;-68
2023/06/26 08:21:46;;;;;;;11.57;10.57;;;47.10;30.60;;;;;;6216980;22;91973;-68
2023/06/26 08:24:13;;;;;;;9.63;8.63;;;46.30;32.50;;;;;;6214499;22;93359;-68
2023/06/26 08:26:39;;;;;;;14.05;10.50;;;47.60;31.70;;;;;;6215901;22;92424;-68
2023/06/26 08:29:08;;;;;;;8.85;7.57;;;48.60;30.90;;;;;;6214294;22;93649;-69
2023/06/26 08:31:37;;;;;;;12.57;11.52;;;49.20;30.00;;;;;;6216303;22;92546;-68
2023/06/26 08:34:04;;;;;;;11.68;10.52;;;49.50;30.80;;;;;;6214423;22;94061;-68
2023/06/26 08:36:30;;;;;;;12.60;11.40;;;49.40;29.90;;;;;;6214299;22;92255;-68
2023/06/26 08:38:56;;;;;;;13.02;11.82;;;49.40;30.00;;;;;;6214702;22;92178;-68
2023/06/26 08:41:22;;;;;;;16.00;13.63;;;49.80;31.60;;;;;;6215320;22;92568;-69
2023/06/26 08:43:48;;;;;;;11.45;10.43;;;49.70;32.80;;;;;;6214850;22;92675;-68
2023/06/26 08:46:14;;;;;;;13.55;12.35;;;49.20;32.70;;;;;;6215190;22;93389;-68
2023/06/26 08:48:45;;;;;;;12.73;11.52;;;49.20;32.80;;;;;;6214868;22;92457;-69
2023/06/26 08:51:12;;;;;;;12.80;11.57;;;50.10;33.00;;;;;;6215133;22;92218;-68
2023/06/26 08:53:41;;;;;;;13.05;11.85;;;50.40;32.10;;;;;;6214498;22;93496;-68
2023/06/26 08:56:08;;;;;;;11.02;9.98;;;49.30;32.50;;;;;;6213880;22;93211;-68
2023/06/26 08:58:37;;;;;;;12.68;11.40;;;50.20;32.50;;;;;;6215163;22;92349;-68
2023/06/26 09:01:04;;;;;;;13.70;12.35;;;50.20;33.50;;;;;;6214998;22;92117;-68
2023/06/26 09:03:31;;;;;;;16.20;14.80;;;49.90;32.30;;;;;;6214664;22;93516;-69
2023/06/26 09:05:57;;;;;;;11.55;10.55;;;49.60;33.10;;;;;;6214114;22;92339;-68
2023/06/26 09:08:22;;;;;;;11.85;10.60;;;48.90;31.60;;;;;;6214954;22;92525;-67
2023/06/26 09:10:48;;;;;;;13.23;12.13;;;47.50;32.70;;;;;;6214960;22;91691;-68
2023/06/26 09:13:14;;;;;;;11.68;10.27;;;46.80;33.60;;;;;;6214360;22;92735;-68
2023/06/26 09:15:43;;;;;;;12.32;10.40;;;47.40;31.60;;;;;;6214714;22;92780;-68
2023/06/26 09:18:09;;;;;;;7.93;7.20;;;48.10;30.20;;;;;;6213131;22;93256;-68
2023/06/26 09:20:35;;;;;;;9.25;8.35;;;48.20;30.20;;;;;;6215514;22;92632;-69
2023/06/26 09:23:02;;;;;;;12.05;10.95;;;48.30;30.50;;;;;;6214795;22;93088;-68
2023/06/26 09:25:28;;;;;;;12.48;10.32;;;49.00;31.30;;;;;;6214338;22;92382;-68
2023/06/26 09:27:55;;;;;;;12.00;10.90;;;49.70;30.70;;;;;;6214286;22;92552;-68
2023/06/26 09:30:22;;;;;;;13.63;12.02;;;50.60;30.50;;;;;;6214174;22;92415;-67
2023/06/26 09:32:49;;;;;;;12.63;11.30;;;51.20;30.70;;;;;;6214275;22;93177;-70
2023/06/26 09:35:15;;;;;;;13.20;12.00;;;51.10;29.70;;;;;;6214290;22;92345;-67
2023/06/26 09:37:41;;;;;;;15.63;14.32;;;51.00;30.00;;;;;;6214698;22;92485;-69
2023/06/26 09:40:08;;;;;;;11.38;10.38;;;50.60;30.70;;;;;;6215123;22;92490;-67
2023/06/26 09:42:33;;;;;;;11.30;10.20;;;49.90;30.80;;;;;;6211640;22;96204;-68
2023/06/26 09:45:00;;;;;;;10.68;9.02;;;48.60;31.80;;;;;;6213352;22;92598;-68
2023/06/26 09:47:25;;;;;;;10.75;9.77;;;47.20;31.70;;;;;;6186329;22;92556;-68
2023/06/26 09:49:54;;;;;;;11.00;9.85;;;48.10;31.70;;;;;;6214570;22;92447;-68
2023/06/26 09:52:20;;;;;;;12.48;11.18;;;47.30;32.10;;;;;;6213649;22;93617;-68
2023/06/26 09:54:46;;;;;;;10.25;9.35;;;47.20;33.20;;;;;;6213776;22;93949;-68
2023/06/26 09:57:15;;;;;;;11.35;6.93;;;47.60;32.90;;;;;;6214315;22;92344;-68
2023/06/26 09:59:42;;;;;;;9.63;7.90;;;47.40;32.40;;;;;;6214971;22;91742;-70
2023/06/26 10:02:08;;;;;;;10.65;9.40;;;46.90;32.90;;;;;;6213417;22;93270;-68
2023/06/26 10:04:35;;;;;;;8.88;8.07;;;46.70;32.10;;;;;;6212953;22;92284;-67
2023/06/26 10:07:06;;;;;;;9.05;7.35;;;46.00;33.70;;;;;;6213829;22;93312;-67
2023/06/26 10:09:32;;;;;;;9.27;6.72;;;44.30;34.00;;;;;;6214734;22;92198;-68
2023/06/26 10:12:04;;;;;;;9.52;7.28;;;42.00;35.00;;;;;;6213882;22;92381;-69
2023/06/26 10:14:36;;;;;;;7.53;6.82;;;41.20;35.80;;;;;;6213753;22;92194;-69
2023/06/26 10:17:07;;;;;;;9.13;6.55;;;40.20;36.40;;;;;;6214075;22;92120;-70
2023/06/26 10:19:35;;;;;;;6.18;4.43;;;39.40;37.20;;;;;;6213407;22;92163;-69
2023/06/26 10:22:02;;;;;;;8.02;6.22;;;38.90;37.50;;;;;;6213780;22;93145;-70
2023/06/26 10:24:31;;;;;;;11.20;6.03;;;38.50;38.50;;;;;;6213886;22;93348;-71
2023/06/26 10:27:11;;;;;;;10.25;5.95;;;38.40;39.70;;;;;;6213999;22;92246;-70
2023/06/26 10:29:37;;;;;;;6.38;5.78;;;38.10;40.90;;;;;;6215106;22;92330;-71
2023/06/26 10:32:04;;;;;;;7.20;6.28;;;37.70;39.70;;;;;;6213580;22;94444;-70
2023/06/26 10:34:30;;;;;;;11.05;6.80;;;37.40;40.10;;;;;;6214136;22;93520;-69
2023/06/26 10:37:04;;;;;;;8.25;6.55;;;37.10;41.90;;;;;;6214414;22;92491;-69
2023/06/26 10:39:54;;;;;;;6.45;5.43;;;36.80;43.00;;;;;;6214718;22;92619;-69
2023/06/26 10:42:33;;;;;;;9.45;6.28;;;36.60;43.60;;;;;;6215559;22;93213;-71
2023/06/26 10:45:20;;;;;;;9.68;5.05;;;36.60;41.80;;;;;;6212615;22;92433;-69
2023/06/26 10:47:48;;;;;;;8.48;5.95;;;36.50;41.20;;;;;;6213700;22;92533;-70
2023/06/26 10:50:24;;;;;;;7.95;4.88;;;36.50;41.40;;;;;;6213920;22;91751;-69
2023/06/26 10:53:26;;;;;;;8.27;5.45;;;36.20;41.20;;;;;;6213224;22;93107;-69
2023/06/26 10:56:03;;;;;;;8.73;5.97;;;35.80;42.00;;;;;;6207655;22;92349;-70
2023/06/26 10:58:41;;;;;;;6.43;5.32;;;35.90;42.80;;;;;;6212630;22;93226;-69
2023/06/26 11:01:15;;;;;;;7.93;4.85;;;35.60;41.10;;;;;;6213595;22;92648;-71
2023/06/26 11:03:58;;;;;;;8.98;5.18;;;35.70;43.50;;;;;;6213310;22;93188;-69
2023/06/26 11:06:23;;;;;;;6.32;5.22;;;35.70;42.70;;;;;;6213334;22;93504;-69
2023/06/26 11:08:56;;;;;;;13.07;5.97;;;35.70;41.20;;;;;;6186305;22;92372;-70
2023/06/26 11:11:42;;;;;;;8.27;5.75;;;35.50;42.40;;;;;;6213688;22;92135;-69
2023/06/26 11:14:08;;;;;;;7.22;4.68;;;35.60;44.50;;;;;;6212677;22;92695;-70
2023/06/26 11:16:34;;;;;;;6.15;4.78;;;35.70;44.10;;;;;;6212862;22;92643;-68
2023/06/26 11:19:01;;;;;;;10.38;5.72;;;35.60;45.50;;;;;;6213645;22;92037;-69
2023/06/26 11:21:27;;;;;;;12.93;5.28;;;35.50;43.30;;;;;;6214078;22;92349;-68
2023/06/26 11:23:58;;;;;;;7.97;5.40;;;35.60;41.80;;;;;;6212856;22;94305;-69
2023/06/26 11:26:23;;;;;;;10.02;4.78;;;35.60;41.90;;;;;;6213222;22;93211;-68
2023/06/26 11:28:55;;;;;;;6.47;4.88;;;35.60;42.50;;;;;;6213869;22;92264;-68
2023/06/26 11:31:30;;;;;;;9.13;5.13;;;35.60;42.20;;;;;;6215418;22;92423;-69
2023/06/26 11:33:58;;;;;;;8.13;5.03;;;35.50;44.30;;;;;;6215127;22;93060;-69
2023/06/26 11:36:27;;;;;;;10.73;5.35;;;35.50;43.50;;;;;;6215895;22;92930;-69
2023/06/26 11:39:00;;;;;;;10.07;5.32;;;35.60;42.30;;;;;;6215882;22;92501;-69
2023/06/26 11:41:28;;;;;;;5.10;3.67;;;35.60;42.10;;;;;;6216359;22;91673;-69
2023/06/26 11:43:54;;;;;;;7.90;5.43;;;35.50;42.50;;;;;;6215945;22;92689;-69
2023/06/26 11:46:22;;;;;;;11.60;4.80;;;35.40;42.70;;;;;;6215044;22;92681;-69
2023/06/26 11:48:48;;;;;;;12.13;5.28;;;35.20;43.10;;;;;;6215655;22;93148;-69
2023/06/26 11:51:14;;;;;;;8.90;4.75;;;35.10;43.70;;;;;;6216159;22;92406;-70
2023/06/26 11:53:45;;;;;;;7.82;4.60;;;35.10;41.30;;;;;;6214779;22;93016;-67
2023/06/26 11:56:17;;;;;;;11.77;4.80;;;34.80;43.10;;;;;;6216048;22;93253;-69
2023/06/26 11:59:02;;;;;;;9.10;4.90;;;34.80;41.80;;;;;;6215566;22;92366;-68
2023/06/26 12:01:36;;;;;;;6.35;3.97;;;35.00;41.00;;;;;;6216370;22;92320;-69
2023/06/26 12:04:07;;;;;;;9.25;4.57;;;34.70;40.90;;;;;;6215394;22;93140;-69
2023/06/26 12:06:39;;;;;;;8.10;4.55;;;34.60;41.60;;;;;;6215628;22;92692;-68
2023/06/26 12:09:09;;;;;;;8.93;4.43;;;34.40;42.20;;;;;;6215755;22;92342;-68
2023/06/26 12:11:36;;;;;;;9.38;4.25;;;34.40;41.60;;;;;;6216337;22;92041;-68
2023/06/26 12:14:02;;;;;;;7.38;4.40;;;34.40;42.50;;;;;;6214733;22;94039;-68
2023/06/26 12:16:29;;;;;;;8.55;3.63;;;34.50;43.50;;;;;;6215086;22;93163;-69
2023/06/26 12:19:03;;;;;;;6.47;4.88;;;34.70;41.40;;;;;;6215857;22;93821;-69
2023/06/26 12:21:52;;;;;;;5.57;4.82;;;34.80;41.70;;;;;;6216284;22;92544;-68
2023/06/26 12:24:20;;;;;;;6.70;4.32;;;34.60;41.40;;;;;;6215328;22;93170;-69
2023/06/26 12:26:51;;;;;;;7.47;4.55;;;34.20;42.50;;;;;;6215264;22;92848;-68
2023/06/26 12:29:18;;;;;;;11.40;4.70;;;34.30;42.30;;;;;;6216043;22;92286;-69
2023/06/26 12:31:49;;;;;;;6.43;4.95;;;34.70;43.60;;;;;;6216402;22;91615;-69
2023/06/26 12:34:18;;;;;;;9.75;3.90;;;34.90;42.00;;;;;;6215525;22;92879;-70
2023/06/26 12:36:53;;;;;;;9.40;4.13;;;34.70;41.90;;;;;;6215102;22;93223;-68
2023/06/26 12:39:20;;;;;;;7.00;4.65;;;34.50;41.50;;;;;;6215309;22;93363;-69
2023/06/26 12:41:53;;;;;;;10.45;4.57;;;34.60;42.10;;;;;;6215730;22;92422;-68
2023/06/26 12:44:27;;;;;;;7.53;4.82;;;34.80;43.00;;;;;;6214917;22;93379;-70
2023/06/26 12:46:59;;;;;;;7.57;4.75;;;34.80;39.60;;;;;;6215357;22;93434;-68
2023/06/26 12:49:35;;;;;;;9.75;4.82;;;35.00;41.60;;;;;;6215461;22;92267;-68
2023/06/26 12:52:04;;;;;;;8.13;4.95;;;35.00;40.10;;;;;;6216340;22;92224;-69
2023/06/26 12:54:30;;;;;;;;;;;35.00;41.40;;;;;;6215852;22;94524;-69
2023/06/26 12:56:56;;;;;;;8.43;4.57;;;35.00;42.60;;;;;;6217091;22;92298;-69
2023/06/26 12:59:22;;;;;;;7.43;4.97;;;35.00;42.10;;;;;;6215790;22;92485;-68
2023/06/26 13:01:48;;;;;;;6.97;4.68;;;35.00;41.40;;;;;;6215640;22;92054;-69
2023/06/26 13:04:14;;;;;;;11.65;5.50;;;34.70;39.80;;;;;;6214625;22;94520;-69
2023/06/26 13:06:39;;;;;;;7.75;4.57;;;34.70;43.00;;;;;;6215497;22;93688;-69
2023/06/26 13:09:05;;;;;;;6.20;4.53;;;34.80;42.80;;;;;;6215072;22;92336;-70
2023/06/26 13:11:31;;;;;;;12.80;3.95;;;34.80;42.20;;;;;;6216211;22;92532;-70
2023/06/26 13:13:58;;;;;;;7.93;5.00;;;34.90;41.40;;;;;;6215179;22;92575;-69
2023/06/26 13:16:23;;;;;;;8.23;3.85;;;34.70;41.40;;;;;;6214533;22;92219;-70
2023/06/26 13:18:49;;;;;;;10.95;4.93;;;34.70;41.40;;;;;;6215758;22;92329;-69
2023/06/26 13:21:15;;;;;;;8.20;4.72;;;34.70;42.20;;;;;;6216901;22;91758;-70
2023/06/26 13:23:41;;;;;;;7.10;3.63;;;34.80;40.80;;;;;;6215081;22;93202;-69
2023/06/26 13:26:06;;;;;;;6.18;4.15;;;34.80;40.90;;;;;;6214935;22;93350;-69
2023/06/26 13:28:32;;;;;;;8.27;4.15;;;34.70;42.60;;;;;;6215088;22;93288;-68
2023/06/26 13:30:58;;;;;;;8.30;4.85;;;34.70;42.50;;;;;;6215755;22;92628;-68
2023/06/26 13:33:27;;;;;;;17.42;4.75;;;34.70;41.70;;;;;;6215307;22;92385;-68
2023/06/26 13:35:53;;;;;;;;;;;34.90;42.80;;;;;;6215560;22;92740;-68
2023/06/26 13:38:24;;;;;;;9.82;5.38;;;34.90;42.00;;;;;;6217023;22;92067;-69
2023/06/26 13:41:03;;;;;;;6.40;4.82;;;34.80;40.60;;;;;;6215625;22;92415;-68
2023/06/26 13:43:29;;;;;;;8.63;4.78;;;35.00;42.00;;;;;;6215049;22;93507;-68
2023/06/26 13:45:56;;;;;;;5.75;4.70;;;34.70;41.10;;;;;;6215406;22;92683;-69
2023/06/26 13:48:24;;;;;;;12.18;5.53;;;34.80;42.10;;;;;;6215795;22;92539;-69
2023/06/26 13:50:50;;;;;;;8.15;5.10;;;34.90;41.40;;;;;;6215790;22;92388;-68
2023/06/26 13:53:16;;;;;;;5.63;4.30;;;34.80;42.60;;;;;;6214557;22;94443;-69
2023/06/26 13:55:42;;;;;;;6.20;4.55;;;34.80;40.50;;;;;;6214317;22;92590;-69
2023/06/26 13:58:09;;;;;;;8.35;3.95;;;34.70;41.20;;;;;;6215825;22;92162;-68
2023/06/26 14:00:36;;;;;;;6.70;5.25;;;34.60;42.30;;;;;;6215647;22;92060;-69
2023/06/26 14:03:03;;;;;;;10.10;5.38;;;34.60;40.80;;;;;;6214660;22;92869;-70
2023/06/26 14:05:29;;;;;;;6.20;4.82;;;34.60;41.20;;;;;;6214999;22;93068;-70
2023/06/26 14:07:55;;;;;;;6.75;4.47;;;34.60;41.70;;;;;;6215327;22;92340;-70
2023/06/26 14:10:22;;;;;;;5.97;4.65;;;34.70;41.80;;;;;;6215543;22;91679;-68
2023/06/26 14:12:48;;;;;;;9.63;5.10;;;34.70;40.70;;;;;;6214856;22;93013;-68
2023/06/26 14:15:14;;;;;;;8.23;5.10;;;34.80;41.10;;;;;;6214925;22;93252;-70
2023/06/26 14:17:39;;;;;;;7.35;4.85;;;34.70;40.50;;;;;;6215153;22;93345;-68
2023/06/26 14:20:09;;;;;;;9.63;4.40;;;34.70;40.70;;;;;;6216729;22;93869;-72
2023/06/26 14:22:36;;;;;;;7.03;5.13;;;34.40;41.70;;;;;;6215805;22;93082;-69
2023/06/26 14:25:02;;;;;;;8.80;4.53;;;34.50;41.90;;;;;;6216177;22;92757;-69
2023/06/26 14:27:28;;;;;;;7.78;4.65;;;34.30;41.10;;;;;;6216760;22;92245;-69
2023/06/26 14:29:54;;;;;;;10.80;4.70;;;34.20;41.60;;;;;;6216114;22;92739;-68
2023/06/26 14:32:19;;;;;;;8.23;5.72;;;34.10;42.70;;;;;;6216161;22;93459;-68
2023/06/26 14:34:45;;;;;;;9.15;5.03;;;33.90;42.60;;;;;;6216299;22;91737;-68
2023/06/26 14:37:11;;;;;;;8.23;4.60;;;33.60;44.10;;;;;;6216229;22;92449;-69
2023/06/26 14:39:38;;;;;;;6.47;4.53;;;33.40;45.70;;;;;;6216468;22;92389;-68
2023/06/26 14:42:04;;;;;;;9.93;4.40;;;33.00;45.80;;;;;;6215656;22;94540;-68
2023/06/26 14:44:30;;;;;;;9.68;4.85;;;32.60;46.20;;;;;;6215600;22;93658;-68
2023/06/26 14:46:56;;;;;;;8.15;3.58;;;32.40;47.70;;;;;;6216406;22;92368;-68
2023/06/26 14:49:21;;;;;;;10.23;5.35;;;32.30;47.90;;;;;;6216552;22;92225;-68
2023/06/26 14:51:47;;;;;;;5.60;4.28;;;32.50;49.90;;;;;;6215570;22;92661;-68
2023/06/26 14:54:13;;;;;;;6.20;4.40;;;32.40;49.60;;;;;;6216239;22;93523;-68
2023/06/26 14:56:44;;;;;;;9.27;3.53;;;32.30;49.70;;;;;;6215875;22;92349;-68
2023/06/26 14:59:10;;;;;;;16.02;5.25;;;32.30;50.60;;;;;;6217156;22;91552;-68
2023/06/26 15:01:36;;;;;;;15.57;4.97;;;32.10;51.20;;;;;;6215760;22;92548;-68
2023/06/26 15:04:01;;;;;;;11.40;5.25;;;32.00;52.20;;;;;;6215182;22;92974;-70
2023/06/26 15:06:27;;;;;;;6.53;5.25;;;32.00;51.10;;;;;;6215692;22;93173;-69
2023/06/26 15:08:52;;;;;;;7.93;5.20;;;32.20;51.80;;;;;;6216614;22;92202;-69
2023/06/26 15:11:18;;;;;;;10.35;4.95;;;32.40;50.60;;;;;;6215644;22;92444;-68
2023/06/26 15:13:44;;;;;;;6.38;4.88;;;32.60;50.70;;;;;;6215771;22;92646;-69
2023/06/26 15:16:10;;;;;;;8.65;4.82;;;32.80;49.30;;;;;;6215160;22;92706;-69
2023/06/26 15:18:35;;;;;;;9.45;4.63;;;32.90;48.50;;;;;;6216677;22;92557;-68
2023/06/26 15:21:02;;;;;;;9.30;4.63;;;33.00;48.80;;;;;;6215556;22;92030;-68
2023/06/26 15:23:28;;;;;;;8.48;4.85;;;33.10;47.90;;;;;;6215760;22;93030;-68
2023/06/26 15:25:54;;;;;;;9.23;4.75;;;33.10;49.10;;;;;;6215903;22;92370;-68
2023/06/26 15:28:20;;;;;;;9.98;4.90;;;33.10;49.10;;;;;;6215719;22;91892;-69
2023/06/26 15:30:47;;;;;;;11.60;5.05;;;33.10;48.60;;;;;;6214482;22;94098;-69
2023/06/26 15:33:12;;;;;;;6.20;4.53;;;33.20;48.10;;;;;;6215644;22;94077;-69
2023/06/26 15:35:38;;;;;;;12.43;4.20;;;33.20;48.80;;;;;;6189146;22;92349;-68
2023/06/26 15:38:04;;;;;;;11.15;4.53;;;33.10;49.50;;;;;;6215845;22;92284;-69
2023/06/26 15:40:30;;;;;;;12.20;4.95;;;33.10;50.00;;;;;;6215481;22;92271;-68
2023/06/26 15:42:56;;;;;;;8.82;4.65;;;33.00;50.00;;;;;;6215352;22;92712;-69
2023/06/26 15:45:24;;;;;;;9.88;4.32;;;32.80;49.20;;;;;;6216043;22;92252;-69
2023/06/26 15:47:50;;;;;;;9.32;5.15;;;32.70;49.70;;;;;;6216967;22;91747;-69
2023/06/26 15:50:16;;;;;;;10.68;4.93;;;32.60;50.20;;;;;;6215480;22;93237;-69
2023/06/26 15:52:42;;;;;;;10.50;4.28;;;32.60;49.90;;;;;;6215751;22;92728;-68
2023/06/26 15:55:09;;;;;;;10.10;4.53;;;32.50;50.60;;;;;;6215511;22;93329;-68
2023/06/26 15:57:35;;;;;;;9.32;4.63;;;32.50;50.10;;;;;;6216222;22;92519;-70
2023/06/26 16:00:03;;;;;;;8.25;4.30;;;32.50;49.70;;;;;;6215900;22;93389;-69